LZKZ/KSC METAR and TAF weather

Enter ICAO airport designator
Station Type Date Time Source
LZKZ METAR 2020/01/18 15:30 UTC NOAA

LZKZ 181530Z 36003KT 3500 1300S R01/0225N BCFG BR FEW002 M01/M01 Q1024 BECMG 2000 BR


Station Type Date Time Source
LZKZ Decoded METAR 2020/01/18 15:30 UTC NOAA

Kosice, Barca, Slovakia (LZKZ) 48-39-47N 021-14-28E
Jan 18, 2020 - 10:30 AM EST / 2020.01.18 1530 UTC
Wind: from the N (360 degrees) at 3 MPH (3 KT):0
Visibility: 2 mile(s):0
Sky conditions: mostly clear
Weather: patches of fog; mist
Temperature: 30 F (-1 C)
Dew Point: 30 F (-1 C)
Relative Humidity: 100%
Pressure (altimeter): 30.24 in. Hg (1024 hPa)
ob: LZKZ 181530Z 36003KT 3500 1300S R01/0225N BCFG BR FEW002 M01/M01 Q1024 BECMG 2000 BR
cycle: 15

Station Type Date Time Source
LZKZ TAF 2020/01/18 13:06 UTC NOAA

TAF
AMD LZKZ 181303Z 1813/1912 VRB02KT 2000 BR BKN003
TEMPO 1813/1817 6000 FEW005
BECMG 1817/1819 0800 FZFG
TEMPO 1819/1908 0300 FZFG BKN002
BECMG 1909/1911 3500 BR BKN008

Example: see airport list